Centerville, Kansas
Current Conditions -  °F | °C
As of 2:20 AM on Thursday 29 Jan 2015 (Local Time) from KIXD Reporting Station
Broken Clouds Broken Clouds  
Wind Chill: 40°   Ceiling: 2700
Heat Index: 47°   Visibility: 10mi
Dew Point: 38°   Wind: 20mph
Humidity: 71%   Direction: 320°NW
Pressure: 29.99"   Gusts: 30mph
Location:  38.22°N, 95.01°W
Report Text: KIXD 290820Z AUTO 32017G26KT 10SM BKN027 08/03 A2999 RMK AO2 PK WND 32029/0757 T00830033
Loading
Personal Weather Stations






























Interactive Weather Map New forecast layout! Learn more

10-Day Weather Forecast

Advertisements
Track Severe Weather on mobile